Terminal Aerodrome Forecast
Issued by NWS

Home | Current Version | Previous Version | Text Only | Print | Product List | Glossary On
Versions: 1 2 3 4 5 6 7 8 9 10 11 12 13 14 15 16 17 18 19 20 21
000
FTUS43 KMPX 290007 CCA
TAFRNH
TAF COR
KRNH 290007Z 2900/2924 33004KT P6SM VCSH SCT015 OVC040
      TEMPO 2900/2904 -SHRA BKN015 BKN040
     FM290600 31005KT 5SM BR BKN008 OVC025
     FM291600 28010G18KT P6SM SCT035 BKN060=

USA.gov is the U.S. government's official web portal to all federal, state and local government web resources and services.